Crowder, Oklahoma
Current Conditions -  °F | °C
As of 4:53 AM on Monday 22 Dec 2014 (Local Time) from KMLC Reporting Station
Overcast Overcast  
Wind Chill: 51°   Ceiling: 1100
Heat Index: 51°   Visibility: 10mi
Dew Point: 47°   Wind: 8mph
Humidity: 86%   Direction: 160°SSE
Pressure: 29.6"   Gusts: NA
Location:  35.12°N, 95.67°W
Report Text: KMLC 221053Z AUTO 16007KT 110V190 10SM OVC011 11/08 A2960 RMK AO2 SLP023 T01060083 $
Loading
Personal Weather Stations






























Interactive Weather Map New forecast layout! Learn more

10-Day Weather Forecast

Advertisements
Track Severe Weather on mobile